Welcome to Northern Hawkes Bay. New Zealand.
PWS Header
      nz Flag



Hit Counter


W3C Valid W3C Valid logo


    Wairoa

Select any of the Stations below to visit their websites.










Historic Data from Weather Underground
Select the location of interest below. Wairoa is the default. Please have patience, this Data is slow to load in.
Northern Hawkes Bay Historical Data
Daily Summary for January 16, 2017 Units:  Metric    English   Both
« Previous Day
Next Day »
Daily Weekly Monthly Yearly Custom
  High: Low: Average:
Temperature: 28.9 °C 14.2 °C 21.7 °C
Dew Point: 15.8 °C 5.4 °C 11 °C
Humidity: 87% 28% 53%
Wind Speed: 15.8km/h 0.0km/h 5.6km/h
Wind Gust: 25.6km/h - -
Wind- - SW
Pressure: 1012.1 hPa 1003.6 hPa -
Precipitation: 0.0 mm    
Historical Graphs
 
 
Tabular Data for January 16, 2017
Time Temperature Dew Point Pressure Wind Wind Speed Wind Gust Humidity Rainfall Rate (Hourly) solar
00:03 22.0 °C 9.9 °C 1004.6 hPa NNW 14.8 km/h 20.9 km/h 46% 0.0 mm 0 W/m2
00:08 21.9 °C 10.4 °C 1004.6 hPa NW 9.7 km/h 18.3 km/h 48% 0.0 mm 0 W/m2
00:13 21.8 °C 10.0 °C 1004.6 hPa NNW 11.1 km/h 19.5 km/h 47% 0.0 mm 0 W/m2
00:18 21.8 °C 10.0 °C 1004.6 hPa NNW 9.7 km/h 19.5 km/h 47% 0.0 mm 0 W/m2
00:24 21.6 °C 10.1 °C 1004.3 hPa NNW 13.4 km/h 18.3 km/h 48% 0.0 mm 0 W/m2
00:29 21.4 °C 9.9 °C 1004.3 hPa NNW 12.2 km/h 20.9 km/h 48% 0.0 mm 0 W/m2
00:34 21.4 °C 9.9 °C 1004.3 hPa NNW 14.8 km/h 21.9 km/h 48% 0.0 mm 0 W/m2
00:39 21.3 °C 9.6 °C 1004.3 hPa NW 11.1 km/h 25.6 km/h 47% 0.0 mm 0 W/m2
00:44 21.2 °C 9.4 °C 1004.3 hPa NW 14.8 km/h 25.6 km/h 47% 0.0 mm 0 W/m2
00:49 21.1 °C 9.4 °C 1004.3 hPa NNW 12.2 km/h 23.3 km/h 47% 0.0 mm 0 W/m2
00:54 21.0 °C 9.6 °C 1004.3 hPa NNW 11.1 km/h 25.6 km/h 48% 0.0 mm 0 W/m2
00:59 20.8 °C 10.0 °C 1004.3 hPa NNW 11.1 km/h 25.6 km/h 50% 0.0 mm 0 W/m2
01:04 20.7 °C 10.2 °C 1004.3 hPa NNW 13.4 km/h 25.6 km/h 51% 0.0 mm 0 W/m2
01:09 20.6 °C 10.1 °C 1004.3 hPa NNW 11.1 km/h 25.6 km/h 51% 0.0 mm 0 W/m2
01:14 20.5 °C 10.3 °C 1004.6 hPa NNW 11.1 km/h 19.5 km/h 52% 0.0 mm 0 W/m2
01:19 20.5 °C 10.3 °C 1004.6 hPa NNW 9.7 km/h 24.5 km/h 52% 0.0 mm 0 W/m2
01:24 20.3 °C 10.4 °C 1004.3 hPa NNW 13.4 km/h 24.5 km/h 53% 0.0 mm 0 W/m2
01:29 20.2 °C 10.3 °C 1004.3 hPa North 13.4 km/h 20.9 km/h 53% 0.0 mm 0 W/m2
01:34 20.1 °C 10.2 °C 1004.3 hPa North 9.7 km/h 19.5 km/h 53% 0.0 mm 0 W/m2
01:39 20.1 °C 10.2 °C 1004.3 hPa NNW 12.2 km/h 18.3 km/h 53% 0.0 mm 0 W/m2
01:44 20.1 °C 9.9 °C 1003.9 hPa NNW 14.8 km/h 23.3 km/h 52% 0.0 mm 0 W/m2
01:49 20.1 °C 9.9 °C 1004.3 hPa NNW 13.4 km/h 23.3 km/h 52% 0.0 mm 0 W/m2
01:55 20.1 °C 9.9 °C 1004.3 hPa NW 8.7 km/h 21.9 km/h 52% 0.0 mm 0 W/m2
02:00 20.0 °C 9.8 °C 1003.9 hPa NW 8.7 km/h 20.9 km/h 52% 0.0 mm 0 W/m2
02:05 20.0 °C 9.8 °C 1003.9 hPa NNW 9.7 km/h 20.9 km/h 52% 0.0 mm 0 W/m2
02:10 20.0 °C 9.8 °C 1003.6 hPa NNW 12.2 km/h 21.9 km/h 52% 0.0 mm 0 W/m2
02:15 20.0 °C 9.8 °C 1003.9 hPa NNW 8.7 km/h 21.9 km/h 52% 0.0 mm 0 W/m2
02:20 19.9 °C 10.1 °C 1003.9 hPa NNW 6.1 km/h 17.2 km/h 53% 0.0 mm 0 W/m2
02:25 19.7 °C 10.2 °C 1004.3 hPa NNW 1.1 km/h 13.4 km/h 54% 0.0 mm 0 W/m2
02:30 19.5 °C 9.9 °C 1004.6 hPa NNE 3.5 km/h 8.7 km/h 54% 0.0 mm 0 W/m2
02:35 19.2 °C 9.9 °C 1004.3 hPa NE 3.5 km/h 6.1 km/h 55% 0.0 mm 0 W/m2
02:40 19.0 °C 9.8 °C 1003.9 hPa NNW 9.7 km/h 13.4 km/h 55% 0.0 mm 0 W/m2
02:45 18.8 °C 10.1 °C 1003.6 hPa NNW 6.1 km/h 14.8 km/h 57% 0.0 mm 0 W/m2
02:50 18.7 °C 10.0 °C 1004.3 hPa NNW 7.2 km/h 14.8 km/h 57% 0.0 mm 0 W/m2
02:55 18.8 °C 10.1 °C 1004.6 hPa East 11.1 km/h 13.4 km/h 57% 0.0 mm 0 W/m2
03:00 19.2 °C 9.9 °C 1004.3 hPa East 5.0 km/h 13.4 km/h 55% 0.0 mm 0 W/m2
03:05 19.2 °C 9.7 °C 1004.3 hPa NE 7.2 km/h 13.4 km/h 54% 0.0 mm 0 W/m2
03:10 19.2 °C 9.7 °C 1003.9 hPa North 9.7 km/h 12.2 km/h 54% 0.0 mm 0 W/m2
03:14 19.0 °C 9.8 °C 1004.3 hPa NNW 5.0 km/h 12.2 km/h 55% 0.0 mm 0 W/m2
03:19 18.6 °C 9.7 °C 1004.6 hPa North 1.1 km/h 12.2 km/h 56% 0.0 mm 0 W/m2
03:24 18.3 °C 9.7 °C 1004.6 hPa Calm   6.1 km/h 57% 0.0 mm 0 W/m2
03:29 18.1 °C 9.7 °C 1004.3 hPa ENE 2.6 km/h 5.0 km/h 58% 0.0 mm 0 W/m2
03:34 17.9 °C 10.1 °C 1004.3 hPa NW 3.5 km/h 5.0 km/h 60% 0.0 mm 0 W/m2
03:39 17.4 °C 9.8 °C 1004.3 hPa Calm   5.0 km/h 61% 0.0 mm 0 W/m2
03:44 16.9 °C 9.8 °C 1005.0 hPa SW 1.1 km/h 5.0 km/h 63% 0.0 mm 0 W/m2
03:49 16.7 °C 9.9 °C 1004.6 hPa ESE 1.1 km/h 3.5 km/h 64% 0.0 mm 0 W/m2
03:54 16.6 °C 9.8 °C 1004.6 hPa Calm   3.5 km/h 64% 0.0 mm 0 W/m2
03:59 16.6 °C 9.8 °C 1004.6 hPa North 3.5 km/h 5.0 km/h 64% 0.0 mm 0 W/m2
04:04 16.7 °C 9.9 °C 1004.6 hPa NNW 5.0 km/h 6.1 km/h 64% 0.0 mm 0 W/m2
04:24 16.2 °C 9.8 °C 1005.0 hPa NW 7.2 km/h 9.7 km/h 66% 0.0 mm 0 W/m2
04:29 15.9 °C 10.0 °C 1005.3 hPa Calm   9.7 km/h 68% 0.0 mm 0 W/m2
04:34 15.7 °C 9.8 °C 1005.3 hPa NW 2.6 km/h 9.7 km/h 68% 0.0 mm 0 W/m2
04:39 15.6 °C 9.9 °C 1005.3 hPa WNW 5.0 km/h 7.2 km/h 69% 0.0 mm 0 W/m2
04:44 15.6 °C 10.4 °C 1005.3 hPa NW 3.5 km/h 7.2 km/h 71% 0.0 mm 0 W/m2
04:49 15.5 °C 10.5 °C 1005.3 hPa NW 6.1 km/h 8.7 km/h 72% 0.0 mm 0 W/m2
04:54 15.5 °C 10.5 °C 1005.3 hPa NNW 2.6 km/h 8.7 km/h 72% 0.0 mm 0 W/m2
04:59 15.4 °C 10.4 °C 1005.6 hPa NNW 2.6 km/h 8.7 km/h 72% 0.0 mm 0 W/m2
05:04 15.1 °C 10.3 °C 1005.6 hPa Calm   6.1 km/h 73% 0.0 mm 0 W/m2
05:09 14.9 °C 10.3 °C 1005.6 hPa Calm   6.1 km/h 74% 0.0 mm 0 W/m2
05:14 14.8 °C 10.6 °C 1005.6 hPa NNW 1.1 km/h 5.0 km/h 76% 0.0 mm 0 W/m2
05:19 14.7 °C 10.5 °C 1005.6 hPa NNW 5.0 km/h 7.2 km/h 76% 0.0 mm 0 W/m2
05:24 14.6 °C 10.6 °C 1005.6 hPa NW 5.0 km/h 9.7 km/h 77% 0.0 mm 0 W/m2
05:29 14.7 °C 10.7 °C 1005.6 hPa NW 5.0 km/h 9.7 km/h 77% 0.0 mm 0 W/m2
05:34 14.8 °C 10.6 °C 1005.6 hPa NW 1.1 km/h 9.7 km/h 76% 0.0 mm 0 W/m2
05:39 14.6 °C 10.2 °C 1006.3 hPa NNW 2.6 km/h 6.1 km/h 75% 0.0 mm 0 W/m2
05:44 14.9 °C 10.5 °C 1006.0 hPa Calm   5.0 km/h 75% 0.0 mm 0 W/m2
05:49 15.2 °C 10.4 °C 1006.0 hPa NNE 3.5 km/h 5.0 km/h 73% 0.0 mm 0 W/m2
05:54 15.3 °C 10.3 °C 1006.0 hPa NNW 1.1 km/h 6.1 km/h 72% 0.0 mm 0 W/m2
05:59 15.0 °C 10.0 °C 1006.3 hPa Calm   6.1 km/h 72% 0.0 mm 2 W/m2
06:04 14.7 °C 10.1 °C 1006.0 hPa North 2.6 km/h 6.1 km/h 74% 0.0 mm 4 W/m2
06:09 14.6 °C 10.0 °C 1006.3 hPa North 5.0 km/h 6.1 km/h 74% 0.0 mm 7 W/m2
06:14 14.5 °C 10.1 °C 1006.3 hPa Calm   6.1 km/h 75% 0.0 mm 10 W/m2
06:19 14.5 °C 10.1 °C 1006.3 hPa NW 1.1 km/h 6.1 km/h 75% 0.0 mm 13 W/m2
06:24 14.3 °C 9.9 °C 1006.3 hPa WNW 2.6 km/h 5.0 km/h 75% 0.0 mm 16 W/m2
06:29 14.2 °C 10.1 °C 1006.3 hPa WNW 5.0 km/h 6.1 km/h 76% 0.0 mm 20 W/m2
06:34 14.2 °C 10.1 °C 1006.3 hPa NNW 1.1 km/h 6.1 km/h 76% 0.0 mm 23 W/m2
06:39 14.3 °C 10.3 °C 1006.7 hPa Calm   6.1 km/h 77% 0.0 mm 38 W/m2
06:44 15.0 °C 11.0 °C 1006.7 hPa Calm   3.5 km/h 77% 0.0 mm 53 W/m2
07:01 16.6 °C 10.4 °C 1006.3 hPa NW 5.0 km/h 9.7 km/h 67% 0.0 mm 85 W/m2
07:06 17.3 °C 10.4 °C 1006.7 hPa NNW 6.1 km/h 9.7 km/h 64% 0.0 mm 96 W/m2
07:11 17.9 °C 10.8 °C 1006.7 hPa NNW 6.1 km/h 9.7 km/h 63% 0.0 mm 105 W/m2
07:16 18.3 °C 10.9 °C 1006.7 hPa North 5.0 km/h 9.7 km/h 62% 0.0 mm 121 W/m2
07:22 18.6 °C 10.7 °C 1006.7 hPa North 5.0 km/h 9.7 km/h 60% 0.0 mm 139 W/m2
07:27 19.0 °C 10.6 °C 1007.0 hPa NNW 6.1 km/h 9.7 km/h 58% 0.0 mm 153 W/m2
07:32 19.0 °C 10.3 °C 1007.0 hPa NNW 5.0 km/h 12.2 km/h 57% 0.0 mm 168 W/m2
07:37 19.3 °C 10.6 °C 1007.3 hPa NNW 8.7 km/h 12.2 km/h 57% 0.0 mm 182 W/m2
07:42 19.3 °C 10.8 °C 1007.3 hPa NNW 7.2 km/h 12.2 km/h 58% 0.0 mm 195 W/m2
07:47 19.7 °C 10.9 °C 1007.3 hPa NW 7.2 km/h 13.4 km/h 57% 0.0 mm 209 W/m2
07:52 20.1 °C 10.8 °C 1007.3 hPa NNW 5.0 km/h 13.4 km/h 55% 0.0 mm 225 W/m2
07:57 20.5 °C 10.9 °C 1007.7 hPa North 6.1 km/h 12.2 km/h 54% 0.0 mm 244 W/m2
08:02 21.2 °C 10.9 °C 1008.0 hPa NNW 6.1 km/h 12.2 km/h 52% 0.0 mm 273 W/m2
08:07 21.7 °C 10.8 °C 1007.7 hPa NNW 7.2 km/h 13.4 km/h 50% 0.0 mm 295 W/m2
08:12 22.0 °C 9.9 °C 1008.0 hPa NW 8.7 km/h 17.2 km/h 46% 0.0 mm 309 W/m2
08:17 21.9 °C 9.4 °C 1007.7 hPa WNW 7.2 km/h 19.5 km/h 45% 0.0 mm 330 W/m2
08:22 22.1 °C 9.3 °C 1008.0 hPa NW 9.7 km/h 19.5 km/h 44% 0.0 mm 355 W/m2
08:27 22.0 °C 8.8 °C 1008.4 hPa NW 7.2 km/h 17.2 km/h 43% 0.0 mm 295 W/m2
08:32 22.0 °C 8.5 °C 1008.4 hPa NW 8.7 km/h 15.8 km/h 42% 0.0 mm 348 W/m2
08:37 22.2 °C 9.1 °C 1008.7 hPa NW 3.5 km/h 15.8 km/h 43% 0.0 mm 293 W/m2
08:42 22.5 °C 9.3 °C 1008.4 hPa WNW 2.6 km/h 14.8 km/h 43% 0.0 mm 379 W/m2
08:47 23.0 °C 10.4 °C 1008.7 hPa WNW 3.5 km/h 12.2 km/h 45% 0.0 mm 456 W/m2
08:52 23.4 °C 10.4 °C 1009.0 hPa NW 5.0 km/h 12.2 km/h 44% 0.0 mm 496 W/m2
08:57 23.9 °C 9.9 °C 1009.0 hPa WNW 7.2 km/h 12.2 km/h 41% 0.0 mm 453 W/m2
09:02 23.5 °C 9.5 °C 1009.0 hPa West 5.0 km/h 9.7 km/h 41% 0.0 mm 336 W/m2
09:07 23.1 °C 9.5 °C 1009.4 hPa WSW 3.5 km/h 9.7 km/h 42% 0.0 mm 303 W/m2
09:12 23.3 °C 10.1 °C 1008.7 hPa WNW 9.7 km/h 14.8 km/h 43% 0.0 mm 391 W/m2
09:17 23.0 °C 10.1 °C 1008.7 hPa NW 7.2 km/h 14.8 km/h 44% 0.0 mm 454 W/m2
09:19 23.1 °C 10.2 °C 1009.0 hPa NW 5.0 km/h 14.8 km/h 44% 0.0 mm 375 W/m2
09:24 22.9 °C 9.3 °C 1009.0 hPa NW 6.1 km/h 14.8 km/h 42% 0.0 mm 373 W/m2
09:29 22.9 °C 9.3 °C 1008.7 hPa NW 7.2 km/h 14.8 km/h 42% 0.0 mm 386 W/m2
09:34 22.9 °C 8.9 °C 1008.7 hPa NW 12.2 km/h 24.5 km/h 41% 0.0 mm 408 W/m2
09:39 22.9 °C 9.3 °C 1008.4 hPa NW 5.0 km/h 24.5 km/h 42% 0.0 mm 447 W/m2
09:44 23.2 °C 9.2 °C 1008.7 hPa NW 9.7 km/h 24.5 km/h 41% 0.0 mm 457 W/m2
09:49 22.9 °C 8.9 °C 1008.7 hPa NW 11.1 km/h 20.9 km/h 41% 0.0 mm 601 W/m2
09:54 22.9 °C 8.9 °C 1008.4 hPa NNW 12.2 km/h 20.9 km/h 41% 0.0 mm 472 W/m2
09:59 23.0 °C 9.4 °C 1008.4 hPa NNW 11.1 km/h 19.5 km/h 42% 0.0 mm 514 W/m2
10:04 23.1 °C 9.2 °C 1008.4 hPa NNW 11.1 km/h 19.5 km/h 41% 0.0 mm 430 W/m2
10:09 23.0 °C 9.1 °C 1008.4 hPa NNW 9.7 km/h 21.9 km/h 41% 0.0 mm 522 W/m2
10:14 23.3 °C 9.7 °C 1008.4 hPa NNW 3.5 km/h 21.9 km/h 42% 0.0 mm 433 W/m2
10:19 23.4 °C 9.4 °C 1009.0 hPa NNW 6.1 km/h 15.8 km/h 41% 0.0 mm 662 W/m2
10:24 23.7 °C 9.3 °C 1009.0 hPa NNW 9.7 km/h 15.8 km/h 40% 0.0 mm 728 W/m2
10:29 24.1 °C 8.9 °C 1009.0 hPa NNW 7.2 km/h 15.8 km/h 38% 0.0 mm 694 W/m2
10:34 23.9 °C 9.1 °C 1009.4 hPa North 11.1 km/h 17.2 km/h 39% 0.0 mm 738 W/m2
10:39 23.9 °C 9.5 °C 1009.0 hPa North 8.7 km/h 17.2 km/h 40% 0.0 mm 620 W/m2
10:44 24.3 °C 8.7 °C 1009.0 hPa NW 9.7 km/h 13.4 km/h 37% 0.0 mm 538 W/m2
10:49 24.2 °C 8.6 °C 1009.0 hPa NW 3.5 km/h 17.2 km/h 37% 0.0 mm 648 W/m2
10:54 24.5 °C 9.3 °C 1009.0 hPa NW 9.7 km/h 17.2 km/h 38% 0.0 mm 768 W/m2
10:59 24.9 °C 9.6 °C 1009.4 hPa WNW 2.6 km/h 14.8 km/h 38% 0.0 mm 830 W/m2
11:04 25.5 °C 9.3 °C 1009.4 hPa West 8.7 km/h 13.4 km/h 36% 0.0 mm 703 W/m2
11:09 24.3 °C 11.9 °C 1009.7 hPa SSW 11.1 km/h 19.5 km/h 46% 0.0 mm 623 W/m2
11:14 23.7 °C 12.7 °C 1010.0 hPa South 11.1 km/h 24.5 km/h 50% 0.0 mm 869 W/m2
11:19 22.9 °C 13.1 °C 1010.0 hPa South 9.7 km/h 24.5 km/h 54% 0.0 mm 899 W/m2
11:24 23.3 °C 11.7 °C 1010.0 hPa SSE 9.7 km/h 23.3 km/h 48% 0.0 mm 923 W/m2
11:29 23.8 °C 11.5 °C 1010.0 hPa South 6.1 km/h 15.8 km/h 46% 0.0 mm 862 W/m2
11:34 24.2 °C 12.2 °C 1010.0 hPa South 11.1 km/h 15.8 km/h 47% 0.0 mm 919 W/m2
11:40 24.5 °C 12.8 °C 1009.7 hPa South 8.7 km/h 19.5 km/h 48% 0.0 mm 914 W/m2
11:45 23.8 °C 11.5 °C 1010.0 hPa South 12.2 km/h 19.5 km/h 46% 0.0 mm 855 W/m2
11:50 24.0 °C 11.7 °C 1010.0 hPa South 3.5 km/h 17.2 km/h 46% 0.0 mm 937 W/m2
11:55 24.6 °C 13.5 °C 1010.0 hPa SE 5.0 km/h 15.8 km/h 50% 0.0 mm 949 W/m2
12:00 24.0 °C 13.3 °C 1010.0 hPa SSE 9.7 km/h 15.8 km/h 51% 0.0 mm 900 W/m2
12:05 23.7 °C 13.0 °C 1010.0 hPa South 11.1 km/h 15.8 km/h 51% 0.0 mm 975 W/m2
12:10 23.6 °C 11.9 °C 1010.0 hPa South 12.2 km/h 15.8 km/h 48% 0.0 mm 970 W/m2
12:15 23.9 °C 13.2 °C 1010.0 hPa South 6.1 km/h 18.3 km/h 51% 0.0 mm 959 W/m2
12:20 23.7 °C 12.4 °C 1010.0 hPa SSE 9.7 km/h 18.3 km/h 49% 0.0 mm 821 W/m2
12:25 23.4 °C 10.8 °C 1010.0 hPa SSE 7.2 km/h 15.8 km/h 45% 0.0 mm 922 W/m2
12:30 23.7 °C 11.1 °C 1010.0 hPa South 14.8 km/h 18.3 km/h 45% 0.0 mm 927 W/m2
12:36 23.8 °C 11.5 °C 1010.0 hPa South 11.1 km/h 18.3 km/h 46% 0.0 mm 974 W/m2
12:41 23.3 °C 11.1 °C 1010.0 hPa SSE 8.7 km/h 18.3 km/h 46% 0.0 mm 982 W/m2
12:46 23.6 °C 11.3 °C 1010.0 hPa SSE 9.7 km/h 18.3 km/h 46% 0.0 mm 974 W/m2
12:51 23.7 °C 9.7 °C 1010.0 hPa SSE 14.8 km/h 18.3 km/h 41% 0.0 mm 980 W/m2
12:56 23.3 °C 7.4 °C 1010.0 hPa SSE 8.7 km/h 19.5 km/h 36% 0.0 mm 961 W/m2
13:01 23.5 °C 7.2 °C 1010.0 hPa South 9.7 km/h 19.5 km/h 35% 0.0 mm 967 W/m2
13:06 23.6 °C 7.3 °C 1010.4 hPa SSE 7.2 km/h 18.3 km/h 35% 0.0 mm 961 W/m2
13:11 24.3 °C 7.4 °C 1010.0 hPa SSE 3.5 km/h 18.3 km/h 34% 0.0 mm 962 W/m2
13:16 25.1 °C 6.3 °C 1010.0 hPa South 5.0 km/h 15.8 km/h 30% 0.0 mm 970 W/m2
13:21 24.9 °C 7.6 °C 1010.0 hPa South 8.7 km/h 14.8 km/h 33% 0.0 mm 963 W/m2
13:26 25.0 °C 6.2 °C 1010.0 hPa SSE 6.1 km/h 14.8 km/h 30% 0.0 mm 961 W/m2
13:31 25.1 °C 8.2 °C 1010.0 hPa South 5.0 km/h 12.2 km/h 34% 0.0 mm 956 W/m2
13:36 25.3 °C 7.9 °C 1010.0 hPa SSE 8.7 km/h 14.8 km/h 33% 0.0 mm 952 W/m2
13:41 25.0 °C 8.9 °C 1010.0 hPa SE 7.2 km/h 14.8 km/h 36% 0.0 mm 942 W/m2
13:46 24.8 °C 9.1 °C 1010.0 hPa SE 8.7 km/h 14.8 km/h 37% 0.0 mm 936 W/m2
13:51 25.0 °C 8.1 °C 1009.7 hPa SSE 8.7 km/h 14.8 km/h 34% 0.0 mm 935 W/m2
13:56 24.9 °C 8.4 °C 1010.0 hPa SSE 7.2 km/h 18.3 km/h 35% 0.0 mm 929 W/m2
14:01 25.0 °C 6.7 °C 1010.0 hPa SE 5.0 km/h 18.3 km/h 31% 0.0 mm 921 W/m2
14:06 25.2 °C 5.4 °C 1010.0 hPa ESE 6.1 km/h 17.2 km/h 28% 0.0 mm 917 W/m2
14:11 25.1 °C 5.8 °C 1010.0 hPa SE 8.7 km/h 15.8 km/h 29% 0.0 mm 918 W/m2
14:16 25.1 °C 7.3 °C 1009.7 hPa SSE 5.0 km/h 15.8 km/h 32% 0.0 mm 913 W/m2
14:21 25.4 °C 8.4 °C 1010.0 hPa SE 6.1 km/h 14.8 km/h 34% 0.0 mm 906 W/m2
14:26 25.1 °C 8.6 °C 1010.0 hPa SSE 5.0 km/h 17.2 km/h 35% 0.0 mm 900 W/m2
14:31 25.2 °C 10.3 °C 1009.7 hPa SSE 7.2 km/h 17.2 km/h 39% 0.0 mm 897 W/m2
14:36 25.3 °C 8.3 °C 1009.7 hPa South 5.0 km/h 13.4 km/h 34% 0.0 mm 888 W/m2
14:41 25.3 °C 8.3 °C 1010.0 hPa SSE 7.2 km/h 13.4 km/h 34% 0.0 mm 867 W/m2
14:46 25.3 °C 10.0 °C 1010.0 hPa SE 6.1 km/h 14.8 km/h 38% 0.0 mm 875 W/m2
14:51 25.2 °C 7.8 °C 1009.7 hPa SE 8.7 km/h 14.8 km/h 33% 0.0 mm 814 W/m2
14:56 25.2 °C 8.2 °C 1009.7 hPa ESE 6.1 km/h 14.8 km/h 34% 0.0 mm 848 W/m2
15:01 25.6 °C 6.8 °C 1010.0 hPa SE 6.1 km/h 13.4 km/h 30% 0.0 mm 838 W/m2
15:06 25.6 °C 9.8 °C 1009.7 hPa SSE 6.1 km/h 19.5 km/h 37% 0.0 mm 827 W/m2
15:11 25.5 °C 8.9 °C 1009.7 hPa SSE 5.0 km/h 19.5 km/h 35% 0.0 mm 827 W/m2
15:16 25.8 °C 10.0 °C 1009.7 hPa SSE 7.2 km/h 15.8 km/h 37% 0.0 mm 751 W/m2
15:21 25.8 °C 7.9 °C 1009.7 hPa SE 5.0 km/h 15.8 km/h 32% 0.0 mm 686 W/m2
15:26 25.9 °C 7.0 °C 1009.7 hPa SE 9.7 km/h 15.8 km/h 30% 0.0 mm 728 W/m2
15:31 25.6 °C 9.4 °C 1009.7 hPa SSE 7.2 km/h 15.8 km/h 36% 0.0 mm 703 W/m2
15:36 25.7 °C 9.6 °C 1009.7 hPa SE 3.5 km/h 15.8 km/h 36% 0.0 mm 728 W/m2
15:41 25.8 °C 9.6 °C 1009.7 hPa SE 6.1 km/h 12.2 km/h 36% 0.0 mm 708 W/m2
15:46 25.8 °C 8.8 °C 1010.0 hPa SE 3.5 km/h 13.4 km/h 34% 0.0 mm 608 W/m2
15:51 26.0 °C 8.5 °C 1009.7 hPa SE 8.7 km/h 14.8 km/h 33% 0.0 mm 731 W/m2
15:56 25.8 °C 8.8 °C 1009.7 hPa SE 6.1 km/h 14.8 km/h 34% 0.0 mm 720 W/m2
16:01 26.3 °C 8.3 °C 1009.7 hPa SSE 1.1 km/h 14.8 km/h 32% 0.0 mm 690 W/m2
16:06 26.7 °C 10.0 °C 1009.7 hPa SSE 8.7 km/h 18.3 km/h 35% 0.0 mm 419 W/m2
16:11 25.7 °C 12.2 °C 1009.4 hPa SE 8.7 km/h 18.3 km/h 43% 0.0 mm 652 W/m2
16:16 25.2 °C 12.1 °C 1009.7 hPa SE 5.0 km/h 18.3 km/h 44% 0.0 mm 631 W/m2
16:21 25.5 °C 12.0 °C 1009.4 hPa SSE 7.2 km/h 18.3 km/h 43% 0.0 mm 571 W/m2
16:26 25.5 °C 11.3 °C 1009.4 hPa SSE 5.0 km/h 18.3 km/h 41% 0.0 mm 572 W/m2
16:31 25.9 °C 12.4 °C 1009.4 hPa SSE 15.8 km/h 19.5 km/h 43% 0.0 mm 616 W/m2
16:36 25.0 °C 12.9 °C 1009.7 hPa SSE 6.1 km/h 20.9 km/h 47% 0.0 mm 438 W/m2
16:41 24.5 °C 12.2 °C 1009.4 hPa SSE 6.1 km/h 20.9 km/h 46% 0.0 mm 517 W/m2
16:46 24.9 °C 12.2 °C 1009.4 hPa SSE 6.1 km/h 15.8 km/h 45% 0.0 mm 553 W/m2
16:51 24.8 °C 12.1 °C 1009.0 hPa SSE 3.5 km/h 15.8 km/h 45% 0.0 mm 475 W/m2
16:56 25.1 °C 12.3 °C 1009.4 hPa SE 7.2 km/h 15.8 km/h 45% 0.0 mm 565 W/m2
17:01 25.6 °C 11.0 °C 1009.4 hPa SE 5.0 km/h 15.8 km/h 40% 0.0 mm 374 W/m2
17:06 26.3 °C 8.8 °C 1009.0 hPa ESE 2.6 km/h 15.8 km/h 33% 0.0 mm 429 W/m2
17:11 26.8 °C 11.3 °C 1009.0 hPa ESE 6.1 km/h 11.1 km/h 38% 0.0 mm 502 W/m2
17:16 26.9 °C 12.6 °C 1009.0 hPa ESE 5.0 km/h 12.2 km/h 41% 0.0 mm 432 W/m2
17:21 26.7 °C 11.2 °C 1009.0 hPa East 7.2 km/h 14.8 km/h 38% 0.0 mm 455 W/m2
17:26 26.8 °C 11.3 °C 1009.0 hPa ESE 3.5 km/h 14.8 km/h 38% 0.0 mm 375 W/m2
17:31 27.1 °C 12.0 °C 1009.0 hPa South 7.2 km/h 14.8 km/h 39% 0.0 mm 455 W/m2
17:36 26.8 °C 13.2 °C 1009.0 hPa South 7.2 km/h 14.8 km/h 43% 0.0 mm 418 W/m2
17:41 26.8 °C 12.8 °C 1008.7 hPa ESE 7.2 km/h 13.4 km/h 42% 0.0 mm 406 W/m2
17:46 26.7 °C 12.7 °C 1009.0 hPa ESE 6.1 km/h 13.4 km/h 42% 0.0 mm 404 W/m2
17:51 27.3 °C 12.9 °C 1009.0 hPa SE 6.1 km/h 13.4 km/h 41% 0.0 mm 417 W/m2
17:56 27.3 °C 13.3 °C 1009.0 hPa SE 3.5 km/h 12.2 km/h 42% 0.0 mm 372 W/m2
18:01 27.4 °C 12.6 °C 1009.0 hPa ESE 2.6 km/h 12.2 km/h 40% 0.0 mm 354 W/m2
18:06 28.2 °C 13.3 °C 1009.0 hPa SE 3.5 km/h 12.2 km/h 40% 0.0 mm 366 W/m2
18:11 28.9 °C 13.9 °C 1009.0 hPa SE 2.6 km/h 9.7 km/h 40% 0.0 mm 334 W/m2
18:16 28.5 °C 13.6 °C 1009.0 hPa ESE 5.0 km/h 11.1 km/h 40% 0.0 mm 304 W/m2
18:21 27.8 °C 13.7 °C 1009.0 hPa SSE 6.1 km/h 15.8 km/h 42% 0.0 mm 330 W/m2
18:26 27.0 °C 13.4 °C 1009.4 hPa SSE 8.7 km/h 15.8 km/h 43% 0.0 mm 306 W/m2
18:31 26.5 °C 13.9 °C 1009.4 hPa SSE 5.0 km/h 15.8 km/h 46% 0.0 mm 292 W/m2
18:36 26.9 °C 14.0 °C 1009.4 hPa SSE 7.2 km/h 14.8 km/h 45% 0.0 mm 275 W/m2
18:41 27.0 °C 13.7 °C 1009.4 hPa SSE 6.1 km/h 12.2 km/h 44% 0.0 mm 260 W/m2
18:46 26.8 °C 13.6 °C 1009.4 hPa SSE 8.7 km/h 13.4 km/h 44% 0.0 mm 241 W/m2
18:51 26.5 °C 13.6 °C 1009.4 hPa SE 6.1 km/h 14.8 km/h 45% 0.0 mm 236 W/m2
18:56 26.4 °C 13.6 °C 1009.4 hPa SE 3.5 km/h 14.8 km/h 45% 0.0 mm 220 W/m2
19:01 25.9 °C 13.4 °C 1009.4 hPa SE 3.5 km/h 12.2 km/h 46% 0.0 mm 192 W/m2
19:06 25.6 °C 13.8 °C 1009.7 hPa SE 2.6 km/h 12.2 km/h 48% 0.0 mm 195 W/m2
19:11 25.7 °C 13.6 °C 1009.7 hPa SSE 1.1 km/h 9.7 km/h 47% 0.0 mm 87 W/m2
19:16 24.8 °C 14.0 °C 1009.7 hPa SSE 2.6 km/h 7.2 km/h 51% 0.0 mm 99 W/m2
19:21 25.1 °C 13.3 °C 1009.7 hPa ESE 1.1 km/h 8.7 km/h 48% 0.0 mm 160 W/m2
19:26 25.8 °C 13.3 °C 1009.7 hPa ESE 1.1 km/h 8.7 km/h 46% 0.0 mm 150 W/m2
19:31 25.9 °C 13.1 °C 1010.0 hPa ESE 1.1 km/h 6.1 km/h 45% 0.0 mm 106 W/m2
19:36 25.9 °C 13.4 °C 1010.0 hPa South 3.5 km/h 5.0 km/h 46% 0.0 mm 127 W/m2
19:41 25.6 °C 13.4 °C 1010.4 hPa SW 3.5 km/h 6.1 km/h 47% 0.0 mm 117 W/m2
19:46 25.2 °C 13.4 °C 1010.4 hPa SW 2.6 km/h 6.1 km/h 48% 0.0 mm 104 W/m2
19:51 25.2 °C 13.7 °C 1010.4 hPa SW 1.1 km/h 5.0 km/h 49% 0.0 mm 91 W/m2
19:56 25.2 °C 14.1 °C 1010.4 hPa Calm   3.5 km/h 50% 0.0 mm 79 W/m2
20:01 25.4 °C 14.2 °C 1010.7 hPa Calm   3.5 km/h 50% 0.0 mm 67 W/m2
20:06 25.4 °C 14.2 °C 1010.4 hPa Calm   2.6 km/h 50% 0.0 mm 54 W/m2
20:11 25.1 °C 13.7 °C 1010.4 hPa WNW 1.1 km/h 2.6 km/h 49% 0.0 mm 43 W/m2
20:16 24.6 °C 13.8 °C 1010.7 hPa Calm   2.6 km/h 51% 0.0 mm 32 W/m2
20:21 23.6 °C 13.8 °C 1010.7 hPa Calm   3.5 km/h 54% 0.0 mm 19 W/m2
20:26 22.6 °C 13.4 °C 1010.7 hPa Calm   3.5 km/h 56% 0.0 mm 14 W/m2
20:31 22.0 °C 13.6 °C 1010.7 hPa Calm   2.6 km/h 59% 0.0 mm 10 W/m2
20:36 21.5 °C 13.2 °C 1010.7 hPa Calm   2.6 km/h 59% 0.0 mm 6 W/m2
20:41 21.2 °C 13.2 °C 1010.7 hPa Calm   2.6 km/h 60% 0.0 mm 3 W/m2
20:46 20.9 °C 13.3 °C 1010.7 hPa Calm   2.6 km/h 62% 0.0 mm 1 W/m2
20:51 20.7 °C 13.7 °C 1010.7 hPa ESE 2.6 km/h 5.0 km/h 64% 0.0 mm 0 W/m2
20:56 20.6 °C 13.6 °C 1010.7 hPa Calm   5.0 km/h 64% 0.0 mm 0 W/m2
21:01 20.4 °C 13.6 °C 1011.1 hPa Calm   3.5 km/h 65% 0.0 mm 0 W/m2
21:06 20.2 °C 13.4 °C 1011.1 hPa Calm   3.5 km/h 65% 0.0 mm 0 W/m2
21:11 20.0 °C 13.7 °C 1011.1 hPa Calm   3.5 km/h 67% 0.0 mm 0 W/m2
21:16 19.7 °C 13.7 °C 1011.1 hPa Calm   3.5 km/h 68% 0.0 mm 0 W/m2
21:21 19.5 °C 13.4 °C 1011.1 hPa Calm   1.1 km/h 68% 0.0 mm 0 W/m2
21:26 19.4 °C 13.3 °C 1011.1 hPa Calm     68% 0.0 mm 0 W/m2
21:31 19.2 °C 13.4 °C 1011.1 hPa Calm   2.6 km/h 69% 0.0 mm 0 W/m2
21:36 19.1 °C 13.5 °C 1011.1 hPa Calm   2.6 km/h 70% 0.0 mm 0 W/m2
21:41 18.9 °C 13.6 °C 1011.1 hPa Calm   2.6 km/h 71% 0.0 mm 0 W/m2
21:46 18.8 °C 13.9 °C 1011.1 hPa South 2.6 km/h 6.1 km/h 73% 0.0 mm 0 W/m2
21:51 19.0 °C 14.7 °C 1011.1 hPa Calm   7.2 km/h 76% 0.0 mm 0 W/m2
21:56 18.9 °C 14.8 °C 1011.4 hPa Calm   7.2 km/h 77% 0.0 mm 0 W/m2
22:01 18.7 °C 14.4 °C 1011.4 hPa Calm   1.1 km/h 76% 0.0 mm 0 W/m2
22:06 18.4 °C 14.1 °C 1011.4 hPa Calm     76% 0.0 mm 0 W/m2
22:11 18.3 °C 14.2 °C 1011.4 hPa Calm     77% 0.0 mm 0 W/m2
22:16 18.2 °C 13.9 °C 1011.4 hPa Calm     76% 0.0 mm 0 W/m2
22:22 18.1 °C 13.8 °C 1011.4 hPa Calm     76% 0.0 mm 0 W/m2
22:27 17.9 °C 13.6 °C 1011.4 hPa Calm     76% 0.0 mm 0 W/m2
22:32 17.6 °C 13.6 °C 1011.7 hPa Calm     77% 0.0 mm 0 W/m2
22:37 17.5 °C 13.4 °C 1011.7 hPa Calm     77% 0.0 mm 0 W/m2
22:42 17.4 °C 13.3 °C 1011.7 hPa Calm     77% 0.0 mm 0 W/m2
22:47 17.3 °C 13.4 °C 1012.1 hPa Calm     78% 0.0 mm 0 W/m2
22:52 17.2 °C 13.3 °C 1012.1 hPa Calm     78% 0.0 mm 0 W/m2
22:57 17.2 °C 13.9 °C 1012.1 hPa Calm     81% 0.0 mm 0 W/m2
23:02 17.0 °C 13.7 °C 1011.7 hPa Calm     81% 0.0 mm 0 W/m2
23:07 16.9 °C 14.0 °C 1012.1 hPa South 5.0 km/h 7.2 km/h 83% 0.0 mm 0 W/m2
23:12 17.1 °C 14.4 °C 1011.7 hPa SW 7.2 km/h 11.1 km/h 84% 0.0 mm 0 W/m2
23:17 17.4 °C 14.9 °C 1011.7 hPa SW 5.0 km/h 11.1 km/h 85% 0.0 mm 0 W/m2
23:22 17.6 °C 15.2 °C 1012.1 hPa SW 6.1 km/h 9.7 km/h 86% 0.0 mm 0 W/m2
23:27 17.8 °C 15.4 °C 1012.1 hPa SW 6.1 km/h 11.1 km/h 86% 0.0 mm 0 W/m2
23:32 17.9 °C 15.6 °C 1012.1 hPa SSW 5.0 km/h 11.1 km/h 86% 0.0 mm 0 W/m2
23:37 18.0 °C 15.8 °C 1012.1 hPa SSW 3.5 km/h 11.1 km/h 87% 0.0 mm 0 W/m2
23:42 17.9 °C 15.6 °C 1012.1 hPa SW 2.6 km/h 8.7 km/h 86% 0.0 mm 0 W/m2
23:47 17.7 °C 15.3 °C 1012.1 hPa WSW 2.6 km/h 8.7 km/h 86% 0.0 mm 0 W/m2
23:52 17.4 °C 14.9 °C 1012.1 hPa NW 3.5 km/h 6.1 km/h 85% 0.0 mm 0 W/m2
23:57 16.9 °C 14.2 °C 1012.1 hPa NW 3.5 km/h 8.7 km/h 84% 0.0 mm 0 W/m2
Northern Hawkes Bay. New Zealand Historic Data
Compliments of Weather Underground - 2 mb